createdAt,value
2018-09-02T00:01:30.837Z,90.20
2018-09-02T00:03:59.290Z,90.40
2018-09-02T00:06:27.669Z,90.50
2018-09-02T00:08:56.019Z,90.60
2018-09-02T00:11:24.408Z,90.60
2018-09-02T00:13:52.783Z,90.70
2018-09-02T00:16:21.240Z,90.80
2018-09-02T00:18:49.757Z,90.80
2018-09-02T00:21:18.237Z,91.00
2018-09-02T00:23:46.599Z,91.20
2018-09-02T00:26:14.957Z,91.40
2018-09-02T00:28:43.446Z,91.50
2018-09-02T00:31:11.936Z,91.50
2018-09-02T00:33:40.309Z,91.60
2018-09-02T00:36:08.805Z,91.60
2018-09-02T00:38:37.179Z,91.60
2018-09-02T00:41:05.696Z,91.90
2018-09-02T00:43:34.602Z,91.80
2018-09-02T00:46:02.955Z,92.00
2018-09-02T00:48:31.417Z,92.00
2018-09-02T00:50:59.805Z,92.20
2018-09-02T00:53:28.202Z,92.30
2018-09-02T00:55:56.842Z,92.30
2018-09-02T00:58:25.393Z,92.40
2018-09-02T01:00:53.739Z,92.60
2018-09-02T01:03:22.150Z,92.60
2018-09-02T01:05:51.449Z,92.70
2018-09-02T01:08:19.973Z,92.70
2018-09-02T01:10:48.882Z,92.80
2018-09-02T01:13:17.812Z,93.00
2018-09-02T01:15:47.304Z,93.10
2018-09-02T01:18:16.033Z,93.00
2018-09-02T01:20:44.388Z,93.10
2018-09-02T01:23:12.822Z,93.20
2018-09-02T01:25:41.187Z,93.20
2018-09-02T01:28:09.947Z,93.40
2018-09-02T01:30:38.672Z,93.30
2018-09-02T01:33:07.398Z,93.60
2018-09-02T01:35:36.425Z,93.70
2018-09-02T01:38:05.673Z,93.60
2018-09-02T01:40:35.135Z,93.80
2018-09-02T01:43:03.965Z,93.90
2018-09-02T01:45:32.366Z,94.00
2018-09-02T01:48:00.752Z,94.00
2018-09-02T01:50:29.298Z,94.20
2018-09-02T01:52:57.754Z,94.30
2018-09-02T01:55:26.137Z,94.40
2018-09-02T01:57:54.524Z,94.50
2018-09-02T02:00:22.948Z,94.50
2018-09-02T02:02:51.346Z,94.60
2018-09-02T02:05:19.749Z,94.70
2018-09-02T02:07:48.114Z,94.80
2018-09-02T02:10:16.465Z,94.80
2018-09-02T02:12:44.842Z,94.80
2018-09-02T02:15:13.248Z,95.00
2018-09-02T02:17:41.621Z,95.20
2018-09-02T02:20:10.070Z,95.10
2018-09-02T02:22:38.491Z,95.30
2018-09-02T02:25:06.891Z,95.20
2018-09-02T02:27:35.374Z,95.40
2018-09-02T02:30:03.813Z,95.60
2018-09-02T02:32:32.311Z,95.50
2018-09-02T02:35:00.682Z,95.60
2018-09-02T02:37:29.070Z,95.30
2018-09-02T02:39:57.486Z,95.20
2018-09-02T02:42:25.877Z,95.30
2018-09-02T02:44:54.317Z,95.90
2018-09-02T02:47:22.723Z,95.50
2018-09-02T02:49:51.081Z,95.40
2018-09-02T02:52:19.494Z,95.50
2018-09-02T02:54:47.965Z,95.60
2018-09-02T02:57:16.318Z,95.70
2018-09-02T02:59:44.682Z,95.60
2018-09-02T03:02:13.065Z,95.70
2018-09-02T03:04:41.890Z,95.80
2018-09-02T03:07:11.191Z,96.00
2018-09-02T03:09:39.592Z,95.80
2018-09-02T03:12:08.909Z,95.80
2018-09-02T03:14:37.321Z,95.90
2018-09-02T03:17:05.761Z,95.90
2018-09-02T03:19:34.137Z,96.10
2018-09-02T03:22:02.548Z,96.10
2018-09-02T03:24:30.949Z,96.10
2018-09-02T03:26:59.350Z,96.40
2018-09-02T03:29:27.734Z,96.40
2018-09-02T03:31:56.154Z,96.20
2018-09-02T03:34:24.538Z,96.20
2018-09-02T03:36:52.953Z,96.10
2018-09-02T03:39:21.349Z,96.00
2018-09-02T03:41:50.118Z,96.20
2018-09-02T03:44:18.490Z,96.00
2018-09-02T03:46:46.912Z,96.00
2018-09-02T03:49:15.303Z,96.10
2018-09-02T03:51:43.679Z,96.30
2018-09-02T03:54:12.069Z,96.50
2018-09-02T03:56:40.529Z,96.30
2018-09-02T03:59:08.876Z,96.40
2018-09-02T04:01:37.293Z,96.40
2018-09-02T04:04:05.718Z,96.40
2018-09-02T04:06:34.093Z,96.60
2018-09-02T04:09:02.522Z,96.40
2018-09-02T04:11:30.929Z,96.40
2018-09-02T04:13:59.274Z,96.30
2018-09-02T04:16:27.768Z,96.20
2018-09-02T04:18:56.150Z,96.30
2018-09-02T04:21:24.624Z,96.40
2018-09-02T04:23:53.018Z,96.50
2018-09-02T04:26:21.887Z,96.60
2018-09-02T04:28:50.297Z,96.60
2018-09-02T04:31:18.734Z,96.80
2018-09-02T04:33:47.228Z,96.60
2018-09-02T04:36:15.546Z,96.60
2018-09-02T04:38:43.934Z,96.80
2018-09-02T04:41:12.294Z,97.00
2018-09-02T04:43:40.693Z,96.80
2018-09-02T04:46:09.141Z,96.80
2018-09-02T04:48:37.578Z,96.90
2018-09-02T04:51:06.237Z,96.60
2018-09-02T04:53:34.577Z,96.90
2018-09-02T04:56:03.088Z,96.90
2018-09-02T04:58:31.456Z,96.80
2018-09-02T05:00:59.867Z,96.90
2018-09-02T05:03:28.228Z,96.60
2018-09-02T05:05:57.506Z,96.70
2018-09-02T05:08:25.900Z,97.20
2018-09-02T05:10:54.314Z,96.60
2018-09-02T05:13:23.344Z,97.00
2018-09-02T05:15:51.762Z,97.10
2018-09-02T05:18:20.201Z,97.30
2018-09-02T05:20:48.582Z,97.30
2018-09-02T05:23:17.025Z,97.30
2018-09-02T05:25:45.439Z,97.30
2018-09-02T05:28:13.845Z,97.40
2018-09-02T05:30:42.222Z,97.50
2018-09-02T05:33:10.624Z,97.40
2018-09-02T05:35:39.038Z,97.50
2018-09-02T05:38:07.418Z,97.50
2018-09-02T05:40:35.842Z,97.70
2018-09-02T05:43:04.305Z,97.60
2018-09-02T05:45:32.641Z,97.80
2018-09-02T05:48:01.069Z,98.00
2018-09-02T05:50:29.453Z,98.10
2018-09-02T05:52:57.870Z,98.40
2018-09-02T05:55:26.258Z,98.60
2018-09-02T05:57:54.638Z,98.70
2018-09-02T06:00:23.045Z,98.80
2018-09-02T06:02:51.506Z,98.80
2018-09-02T06:05:24.021Z,98.90
2018-09-02T06:07:53.013Z,99.00
2018-09-02T06:10:21.420Z,98.80
2018-09-02T06:12:50.015Z,98.60
2018-09-02T06:15:18.469Z,98.50
2018-09-02T06:17:47.049Z,98.60
2018-09-02T06:20:15.749Z,98.10
2018-09-02T06:22:44.160Z,98.40
2018-09-02T06:25:12.570Z,98.20
2018-09-02T06:27:40.978Z,98.00
2018-09-02T06:30:09.541Z,98.00
2018-09-02T06:32:37.963Z,97.80
2018-09-02T06:35:06.477Z,97.90
2018-09-02T06:37:34.871Z,97.90
2018-09-02T06:40:03.328Z,97.90
2018-09-02T06:42:31.831Z,97.60
2018-09-02T06:45:00.258Z,97.70
2018-09-02T06:47:28.597Z,97.00
2018-09-02T06:49:56.966Z,96.50
2018-09-02T06:52:25.362Z,96.60
2018-09-02T06:54:53.806Z,95.90
2018-09-02T06:57:22.206Z,95.60
2018-09-02T06:59:50.586Z,95.80
2018-09-02T07:02:19.000Z,96.10
2018-09-02T07:04:47.388Z,96.40
2018-09-02T07:07:15.744Z,96.50
2018-09-02T07:09:44.522Z,96.50
2018-09-02T07:12:12.937Z,97.30
2018-09-02T07:14:42.107Z,97.10
2018-09-02T07:17:10.519Z,96.90
2018-09-02T07:19:38.987Z,96.10
2018-09-02T07:22:07.400Z,95.10
2018-09-02T07:24:35.894Z,95.30
2018-09-02T07:27:04.509Z,94.10
2018-09-02T07:29:33.601Z,92.90
2018-09-02T07:32:01.983Z,92.50
2018-09-02T07:34:30.857Z,91.90
2018-09-02T07:36:59.300Z,91.60
2018-09-02T07:39:27.716Z,91.00
2018-09-02T07:41:56.113Z,90.90
2018-09-02T07:44:24.487Z,91.00
2018-09-02T07:46:52.950Z,90.70
2018-09-02T07:49:21.322Z,90.20
2018-09-02T07:51:49.712Z,90.10
2018-09-02T07:54:18.218Z,89.10
2018-09-02T07:56:46.604Z,90.00
2018-09-02T07:59:15.153Z,89.50
2018-09-02T08:01:43.569Z,88.60
2018-09-02T08:04:11.946Z,88.70
2018-09-02T08:06:40.522Z,90.00
2018-09-02T08:09:21.965Z,88.60
2018-09-02T08:11:50.425Z,86.20
2018-09-02T08:14:18.810Z,86.60
2018-09-02T08:16:47.946Z,84.60
2018-09-02T08:19:16.345Z,85.80
2018-09-02T08:21:44.799Z,85.90
2018-09-02T08:24:13.193Z,86.50
2018-09-02T08:26:42.225Z,84.50
2018-09-02T08:29:10.870Z,84.90
2018-09-02T08:31:40.307Z,88.00
2018-09-02T08:34:08.773Z,88.40
2018-09-02T08:36:37.305Z,88.70
2018-09-02T08:39:09.187Z,84.30
2018-09-02T08:41:37.670Z,84.00
2018-09-02T08:44:06.302Z,84.90
2018-09-02T08:46:34.659Z,83.90
2018-09-02T08:49:03.081Z,82.90
2018-09-02T08:51:31.558Z,83.20
2018-09-02T08:54:00.033Z,80.90
2018-09-02T08:56:28.386Z,80.90
2018-09-02T08:58:56.846Z,79.20
2018-09-02T09:01:25.265Z,78.50
2018-09-02T09:03:54.510Z,77.80
2018-09-02T09:06:25.546Z,76.60
2018-09-02T09:08:54.463Z,75.10
2018-09-02T09:11:22.767Z,74.60
2018-09-02T09:13:51.120Z,73.10
2018-09-02T09:16:19.663Z,73.30
2018-09-02T09:18:48.105Z,69.80
2018-09-02T09:21:21.604Z,69.70
2018-09-02T09:23:50.042Z,69.20
2018-09-02T09:26:18.448Z,70.30
2018-09-02T09:28:46.964Z,70.00
2018-09-02T09:31:15.390Z,67.80
2018-09-02T09:33:43.931Z,68.00
2018-09-02T09:36:13.381Z,67.80
2018-09-02T09:38:41.878Z,64.70
2018-09-02T09:41:10.649Z,66.40
2018-09-02T09:43:39.590Z,64.50
2018-09-02T09:46:08.230Z,63.30
2018-09-02T09:48:36.493Z,63.70
2018-09-02T09:51:04.963Z,61.70
2018-09-02T09:53:33.754Z,61.80
2018-09-02T09:56:02.238Z,60.70
2018-09-02T09:58:30.742Z,60.10
2018-09-02T10:00:59.125Z,58.80
2018-09-02T10:03:27.517Z,57.60
2018-09-02T10:05:55.904Z,57.50
2018-09-02T10:08:24.269Z,56.80
2018-09-02T10:10:52.717Z,58.70
2018-09-02T10:13:21.162Z,56.20
2018-09-02T10:15:49.545Z,54.60
2018-09-02T10:18:19.204Z,54.30
2018-09-02T10:20:47.513Z,54.20
2018-09-02T10:23:15.884Z,53.80
2018-09-02T10:25:44.294Z,52.90
2018-09-02T10:30:55.064Z,53.30
2018-09-02T10:33:23.476Z,51.80
2018-09-02T10:35:51.848Z,51.30
2018-09-02T10:38:20.237Z,50.70
2018-09-02T10:40:55.364Z,51.20
2018-09-02T10:43:24.577Z,50.00
2018-09-02T10:45:52.974Z,49.60
2018-09-02T10:48:21.463Z,50.60
2018-09-02T10:50:49.946Z,48.80
2018-09-02T10:53:18.286Z,48.70
2018-09-02T10:55:46.766Z,47.70
2018-09-02T10:58:15.271Z,46.60
2018-09-02T11:00:43.782Z,44.30
2018-09-02T11:03:12.228Z,45.60
2018-09-02T11:05:40.690Z,47.50
2018-09-02T11:08:09.062Z,47.60
2018-09-02T11:10:37.437Z,47.30
2018-09-02T11:13:05.962Z,44.00
2018-09-02T11:15:34.387Z,43.40
2018-09-02T11:18:02.922Z,42.50
2018-09-02T11:20:31.282Z,40.50
2018-09-02T11:22:59.822Z,41.80
2018-09-02T11:25:28.605Z,40.80
2018-09-02T11:27:56.982Z,40.50
2018-09-02T11:30:25.351Z,40.30
2018-09-02T11:32:53.893Z,38.10
2018-09-02T11:35:22.378Z,38.70
2018-09-02T11:37:50.845Z,37.60
2018-09-02T11:43:09.301Z,38.90
2018-09-02T11:45:37.695Z,37.60
2018-09-02T11:48:06.173Z,37.00
2018-09-02T11:50:34.563Z,37.30
2018-09-02T11:53:02.958Z,37.30
2018-09-02T11:55:31.361Z,37.70
2018-09-02T11:57:59.790Z,38.70
2018-09-02T12:00:28.177Z,37.70
2018-09-02T12:02:56.568Z,38.10
2018-09-02T12:05:24.950Z,37.50
2018-09-02T12:07:53.317Z,38.10
2018-09-02T12:10:21.691Z,38.70
2018-09-02T12:12:50.569Z,39.10
2018-09-02T12:15:18.958Z,39.00
2018-09-02T12:17:48.192Z,38.30
2018-09-02T12:20:17.137Z,40.20
2018-09-02T12:22:46.170Z,37.20
2018-09-02T12:25:14.537Z,38.10
2018-09-02T12:27:43.783Z,37.60
2018-09-02T12:30:12.174Z,37.40
2018-09-02T12:32:40.549Z,37.70
2018-09-02T12:35:08.938Z,38.50
2018-09-02T12:37:37.325Z,37.10
2018-09-02T12:40:05.786Z,36.90
2018-09-02T12:42:34.173Z,37.20
2018-09-02T12:45:02.613Z,37.40
2018-09-02T12:47:31.026Z,37.80
2018-09-02T12:49:59.416Z,38.60
2018-09-02T12:52:28.268Z,37.90
2018-09-02T12:54:56.721Z,37.20
2018-09-02T12:57:25.099Z,37.80
2018-09-02T12:59:53.634Z,38.00
2018-09-02T13:02:22.013Z,37.80
2018-09-02T13:04:50.417Z,38.80
2018-09-02T13:07:18.902Z,37.50
2018-09-02T13:09:47.291Z,37.80
2018-09-02T13:12:16.230Z,38.70
2018-09-02T13:14:44.696Z,38.20
2018-09-02T13:17:13.058Z,37.20
2018-09-02T13:19:41.501Z,37.00
2018-09-02T13:22:09.944Z,37.80
2018-09-02T13:24:38.403Z,37.40
2018-09-02T13:27:06.857Z,38.10
2018-09-02T13:29:35.314Z,37.50
2018-09-02T13:32:03.836Z,37.40
2018-09-02T13:34:32.207Z,39.00
2018-09-02T13:37:00.566Z,38.60
2018-09-02T13:39:29.066Z,37.20
2018-09-02T13:41:57.447Z,38.70
2018-09-02T13:44:25.882Z,38.80
2018-09-02T13:46:54.271Z,37.90
2018-09-02T13:49:22.654Z,38.00
2018-09-02T13:51:51.032Z,37.30
2018-09-02T13:54:19.460Z,38.00
2018-09-02T13:56:47.813Z,38.00
2018-09-02T13:59:16.189Z,38.60
2018-09-02T14:01:44.609Z,38.30
2018-09-02T14:04:12.988Z,38.90
2018-09-02T14:06:41.403Z,38.40
2018-09-02T14:09:10.106Z,38.60
2018-09-02T14:11:38.613Z,39.10
2018-09-02T14:14:06.982Z,40.40
2018-09-02T14:16:35.368Z,39.00
2018-09-02T14:19:03.799Z,38.30
2018-09-02T14:21:32.151Z,38.50
2018-09-02T14:24:00.535Z,39.20
2018-09-02T14:26:29.037Z,39.80
2018-09-02T14:28:57.392Z,39.70
2018-09-02T14:31:25.853Z,39.50
2018-09-02T14:33:54.318Z,40.20
2018-09-02T14:36:22.786Z,39.90
2018-09-02T14:38:51.434Z,41.10
2018-09-02T14:41:19.936Z,40.70
2018-09-02T14:43:48.518Z,41.10
2018-09-02T14:46:16.869Z,39.50
2018-09-02T14:48:45.340Z,40.50
2018-09-02T14:51:13.765Z,39.50
2018-09-02T14:53:42.119Z,39.90
2018-09-02T14:56:10.517Z,39.60
2018-09-02T14:58:38.925Z,39.70
2018-09-02T15:01:07.264Z,40.10
2018-09-02T15:03:35.659Z,40.30
2018-09-02T15:06:04.264Z,40.50
2018-09-02T15:08:32.740Z,40.80
2018-09-02T15:11:01.151Z,41.80
2018-09-02T15:13:29.568Z,41.50
2018-09-02T15:15:58.010Z,42.00
2018-09-02T15:18:26.459Z,42.50
2018-09-02T15:20:54.874Z,41.80
2018-09-02T15:23:23.277Z,43.20
2018-09-02T15:25:51.665Z,42.50
2018-09-02T15:28:20.081Z,42.80
2018-09-02T15:30:48.433Z,42.40
2018-09-02T15:33:16.781Z,42.30
2018-09-02T15:35:45.182Z,42.70
2018-09-02T15:38:13.549Z,43.30
2018-09-02T15:40:42.037Z,43.40
2018-09-02T15:43:10.415Z,43.20
2018-09-02T15:45:38.890Z,43.80
2018-09-02T15:48:07.362Z,43.30
2018-09-02T15:50:35.934Z,42.90
2018-09-02T15:53:04.402Z,43.50
2018-09-02T15:55:32.754Z,43.20
2018-09-02T15:58:01.152Z,43.70
2018-09-02T16:00:29.606Z,43.50
2018-09-02T16:02:57.993Z,43.40
2018-09-02T16:05:26.385Z,44.70
2018-09-02T16:07:54.785Z,43.20
2018-09-02T16:10:23.124Z,43.70
2018-09-02T16:12:51.619Z,43.20
2018-09-02T16:15:20.069Z,43.90
2018-09-02T16:17:48.463Z,44.10
2018-09-02T16:20:16.944Z,44.10
2018-09-02T16:22:45.594Z,44.30
2018-09-02T16:25:13.999Z,45.00
2018-09-02T16:27:42.360Z,44.60
2018-09-02T16:30:10.777Z,44.30
2018-09-02T16:32:39.206Z,43.60
2018-09-02T16:35:07.749Z,44.70
2018-09-02T16:37:36.186Z,45.10
2018-09-02T16:40:04.607Z,45.30
2018-09-02T16:42:33.100Z,45.80
2018-09-02T16:45:01.496Z,45.30
2018-09-02T16:47:30.161Z,45.70
2018-09-02T16:49:58.537Z,45.40
2018-09-02T16:52:26.956Z,45.00
2018-09-02T16:54:55.342Z,45.60
2018-09-02T16:57:23.727Z,46.90
2018-09-02T16:59:52.152Z,46.60
2018-09-02T17:02:20.553Z,46.90
2018-09-02T17:04:50.385Z,47.10
2018-09-02T17:07:18.857Z,48.30
2018-09-02T17:09:47.284Z,47.60
2018-09-02T17:12:15.663Z,47.40
2018-09-02T17:14:44.160Z,48.40
2018-09-02T17:17:12.536Z,47.90
2018-09-02T17:19:43.919Z,48.00
2018-09-02T17:22:12.330Z,47.90
2018-09-02T17:24:40.789Z,48.30
2018-09-02T17:27:09.166Z,49.20
2018-09-02T17:29:37.529Z,48.60
2018-09-02T17:32:10.559Z,48.60
2018-09-02T17:34:40.306Z,49.00
2018-09-02T17:37:09.398Z,49.40
2018-09-02T17:39:38.181Z,49.10
2018-09-02T17:42:06.601Z,49.00
2018-09-02T17:44:35.045Z,50.20
2018-09-02T17:47:03.766Z,50.30
2018-09-02T17:49:32.198Z,50.00
2018-09-02T17:52:00.546Z,50.00
2018-09-02T17:54:28.993Z,50.30
2018-09-02T17:56:57.498Z,50.40
2018-09-02T17:59:25.890Z,51.10
2018-09-02T18:01:54.288Z,50.70
2018-09-02T18:04:22.685Z,51.40
2018-09-02T18:06:51.155Z,51.30
2018-09-02T18:09:20.092Z,51.30
2018-09-02T18:11:48.434Z,51.50
2018-09-02T18:14:16.858Z,52.20
2018-09-02T18:16:45.281Z,52.00
2018-09-02T18:19:13.760Z,52.30
2018-09-02T18:21:42.288Z,52.80
2018-09-02T18:24:10.700Z,53.90
2018-09-02T18:26:40.165Z,54.90
2018-09-02T18:29:08.778Z,55.40
2018-09-02T18:31:37.864Z,55.60
2018-09-02T18:34:06.894Z,55.60
2018-09-02T18:36:35.835Z,56.00
2018-09-02T18:39:07.114Z,55.80
2018-09-02T18:41:35.595Z,56.50
2018-09-02T18:44:04.677Z,56.40
2018-09-02T18:46:33.606Z,56.70
2018-09-02T18:49:02.505Z,57.00
2018-09-02T18:51:31.348Z,57.50
2018-09-02T18:54:00.476Z,57.80
2018-09-02T18:56:31.198Z,58.00
2018-09-02T18:58:59.854Z,58.50
2018-09-02T19:01:28.306Z,58.50
2018-09-02T19:03:56.718Z,58.30
2018-09-02T19:06:25.192Z,58.30
2018-09-02T19:08:53.595Z,58.40
2018-09-02T19:11:22.014Z,58.80
2018-09-02T19:13:50.678Z,59.10
2018-09-02T19:16:19.159Z,59.40
2018-09-02T19:18:48.525Z,58.90
2018-09-02T19:21:17.243Z,59.30
2018-09-02T19:23:45.947Z,59.20
2018-09-02T19:26:14.350Z,59.70
2018-09-02T19:28:42.791Z,59.30
2018-09-02T19:31:11.693Z,60.10
2018-09-02T19:33:40.280Z,60.10
2018-09-02T19:36:08.952Z,60.70
2018-09-02T19:38:37.619Z,60.50
2018-09-02T19:41:06.121Z,60.50
2018-09-02T19:43:34.726Z,60.60
2018-09-02T19:46:03.225Z,60.90
2018-09-02T19:48:31.633Z,61.00
2018-09-02T19:51:00.004Z,61.30
2018-09-02T19:53:28.546Z,61.30
2018-09-02T19:55:57.000Z,61.50
2018-09-02T19:58:25.654Z,61.50
2018-09-02T20:00:54.081Z,62.00
2018-09-02T20:03:22.450Z,62.10
2018-09-02T20:05:50.861Z,62.10
2018-09-02T20:08:19.226Z,62.50
2018-09-02T20:10:47.896Z,62.20
2018-09-02T20:13:16.572Z,62.80
2018-09-02T20:15:44.973Z,62.90
2018-09-02T20:18:13.505Z,63.20
2018-09-02T20:20:41.909Z,62.60
2018-09-02T20:23:10.373Z,63.30
2018-09-02T20:25:38.753Z,62.70
2018-09-02T20:28:07.273Z,63.10
2018-09-02T20:30:35.723Z,62.80
2018-09-02T20:33:04.161Z,62.90
2018-09-02T20:35:32.747Z,63.60
2018-09-02T20:38:01.273Z,63.30
2018-09-02T20:40:29.687Z,63.70
2018-09-02T20:42:58.069Z,63.50
2018-09-02T20:45:26.616Z,64.00
2018-09-02T20:47:55.057Z,64.00
2018-09-02T20:50:23.449Z,64.00
2018-09-02T20:52:51.870Z,64.20
2018-09-02T20:55:20.233Z,64.30
2018-09-02T20:57:48.621Z,64.50
2018-09-02T21:00:17.167Z,64.60
2018-09-02T21:02:45.606Z,65.10
2018-09-02T21:05:14.262Z,64.80
2018-09-02T21:07:42.647Z,65.10
2018-09-02T21:10:11.029Z,65.10
2018-09-02T21:12:39.596Z,65.00
2018-09-02T21:15:08.153Z,65.70
2018-09-02T21:17:36.645Z,65.90
2018-09-02T21:20:05.082Z,65.70
2018-09-02T21:22:33.509Z,65.40
2018-09-02T21:25:01.878Z,66.60
2018-09-02T21:27:30.262Z,65.60
2018-09-02T21:29:58.637Z,65.70
2018-09-02T21:32:27.041Z,65.40
2018-09-02T21:34:55.494Z,65.50
2018-09-02T21:37:23.844Z,65.50
2018-09-02T21:39:52.185Z,65.60
2018-09-02T21:42:20.553Z,65.70
2018-09-02T21:44:49.049Z,65.50
2018-09-02T21:47:17.518Z,66.30
2018-09-02T21:49:46.217Z,66.30
2018-09-02T21:52:14.565Z,66.30
2018-09-02T21:54:43.150Z,66.30
2018-09-02T21:57:11.637Z,66.40
2018-09-02T21:59:40.054Z,66.30
2018-09-02T22:02:08.444Z,67.30
2018-09-02T22:04:36.946Z,66.40
2018-09-02T22:07:05.629Z,66.60
2018-09-02T22:09:33.973Z,67.40
2018-09-02T22:12:02.369Z,67.40
2018-09-02T22:14:30.725Z,67.10
2018-09-02T22:16:59.086Z,67.80
2018-09-02T22:19:27.465Z,67.40
2018-09-02T22:21:55.939Z,67.50
2018-09-02T22:24:24.350Z,67.50
2018-09-02T22:26:52.769Z,67.70
2018-09-02T22:29:21.141Z,68.00
2018-09-02T22:31:49.600Z,68.60
2018-09-02T22:34:18.010Z,68.10
2018-09-02T22:36:46.361Z,68.60
2018-09-02T22:39:14.729Z,68.90
2018-09-02T22:41:43.158Z,68.50
2018-09-02T22:44:11.557Z,68.80
2018-09-02T22:46:39.955Z,68.70
2018-09-02T22:49:08.356Z,69.20
2018-09-02T22:51:36.736Z,69.10
2018-09-02T22:54:05.191Z,69.80
2018-09-02T22:56:33.602Z,69.90
2018-09-02T22:59:01.952Z,69.90
2018-09-02T23:01:30.345Z,69.90
2018-09-02T23:03:58.722Z,69.80
2018-09-02T23:06:27.101Z,69.70
2018-09-02T23:08:55.910Z,70.30
2018-09-02T23:11:24.345Z,70.00
2018-09-02T23:13:52.693Z,70.80
2018-09-02T23:16:21.061Z,70.50
2018-09-02T23:18:49.569Z,71.40
2018-09-02T23:21:17.921Z,71.20
2018-09-02T23:23:46.386Z,70.50
2018-09-02T23:26:14.786Z,70.40
2018-09-02T23:28:43.207Z,71.00
2018-09-02T23:31:11.592Z,71.60
2018-09-02T23:33:40.091Z,72.50
2018-09-02T23:36:08.442Z,72.30
2018-09-02T23:38:36.830Z,72.70
2018-09-02T23:41:05.366Z,73.10
2018-09-02T23:43:33.835Z,73.60
2018-09-02T23:46:02.245Z,74.20
2018-09-02T23:48:30.621Z,73.40
2018-09-02T23:50:58.969Z,73.70
2018-09-02T23:53:27.321Z,74.00
2018-09-02T23:55:55.712Z,73.60
2018-09-02T23:58:24.081Z,74.10
